createdAt,value
2017-06-17T00:00:01.840Z,13.6
2017-06-17T00:05:01.389Z,13.6
2017-06-17T00:10:01.590Z,13.6
2017-06-17T00:15:01.876Z,13.6
2017-06-17T00:20:01.971Z,13.6
2017-06-17T00:25:01.956Z,13.6
2017-06-17T00:30:01.730Z,13.6
2017-06-17T00:35:01.565Z,13.6
2017-06-17T00:40:01.367Z,13.6
2017-06-17T00:45:01.935Z,13.6
2017-06-17T00:50:02.111Z,13.6
2017-06-17T00:55:01.804Z,13.6
2017-06-17T01:00:01.670Z,13.6
2017-06-17T01:05:01.206Z,13.5
2017-06-17T01:10:02.031Z,13.5
2017-06-17T01:15:01.301Z,13.5
2017-06-17T01:20:01.877Z,13.4
2017-06-17T01:25:01.935Z,13.4
2017-06-17T01:30:01.860Z,13.4
2017-06-17T01:35:01.291Z,13.4
2017-06-17T01:40:02.116Z,13.4
2017-06-17T01:45:02.048Z,13.3
2017-06-17T01:50:02.168Z,13.4
2017-06-17T01:55:01.875Z,13.3
2017-06-17T02:00:01.694Z,13.3
2017-06-17T02:05:01.910Z,13.3
2017-06-17T02:10:01.666Z,13.3
2017-06-17T02:15:01.574Z,13.3
2017-06-17T02:20:01.958Z,13.2
2017-06-17T02:25:01.527Z,13.2
2017-06-17T02:30:01.699Z,13.2
2017-06-17T02:35:01.395Z,13.2
2017-06-17T02:40:01.932Z,13.2
2017-06-17T02:45:02.117Z,13.2
2017-06-17T02:50:01.539Z,13.2
2017-06-17T02:55:01.431Z,13.1
2017-06-17T03:00:01.494Z,13.1
2017-06-17T03:05:01.791Z,13.1
2017-06-17T03:10:01.548Z,13
2017-06-17T03:15:01.721Z,13
2017-06-17T03:20:01.598Z,13
2017-06-17T03:25:01.691Z,13
2017-06-17T03:30:01.685Z,13
2017-06-17T03:35:02.092Z,13
2017-06-17T03:40:01.925Z,13
2017-06-17T03:45:01.373Z,13
2017-06-17T03:50:02.041Z,13.1
2017-06-17T03:55:01.840Z,13
2017-06-17T04:00:01.906Z,13
2017-06-17T04:05:01.310Z,13.1
2017-06-17T04:10:02.112Z,13.1
2017-06-17T04:15:01.487Z,13.1
2017-06-17T04:20:01.248Z,13.2
2017-06-17T04:25:01.328Z,13.2
2017-06-17T04:30:01.844Z,13.2
2017-06-17T04:35:01.984Z,13.2
2017-06-17T04:40:01.754Z,13.4
2017-06-17T04:45:02.160Z,13.5
2017-06-17T04:50:01.777Z,13.5
2017-06-17T04:55:03.514Z,13.5
2017-06-17T05:00:01.753Z,13.5
2017-06-17T05:05:01.417Z,13.6
2017-06-17T05:10:01.191Z,13.8
2017-06-17T05:15:01.631Z,13.8
2017-06-17T05:20:01.545Z,13.9
2017-06-17T05:25:01.782Z,14
2017-06-17T05:30:01.439Z,14
2017-06-17T05:35:01.357Z,14.1
2017-06-17T05:40:01.661Z,14.1
2017-06-17T05:45:01.895Z,14.1
2017-06-17T05:50:02.122Z,14.4
2017-06-17T05:55:01.403Z,14.5
2017-06-17T06:00:01.821Z,14.5
2017-06-17T06:05:01.198Z,14.6
2017-06-17T06:10:01.989Z,14.9
2017-06-17T06:15:01.583Z,15
2017-06-17T06:20:01.512Z,15
2017-06-17T06:25:01.655Z,15
2017-06-17T06:30:02.104Z,15
2017-06-17T06:35:01.548Z,15
2017-06-17T06:40:01.344Z,15
2017-06-17T06:45:02.101Z,15
2017-06-17T06:50:01.523Z,15
2017-06-17T06:55:02.159Z,15
2017-06-17T07:00:01.651Z,15
2017-06-17T07:05:01.597Z,15
2017-06-17T07:10:01.731Z,15.2
2017-06-17T07:15:01.872Z,15.4
2017-06-17T07:20:02.031Z,15.4
2017-06-17T07:25:01.281Z,15.4
2017-06-17T07:30:01.763Z,15.8
2017-06-17T07:35:01.401Z,15.9
2017-06-17T07:40:01.226Z,16
2017-06-17T07:45:01.922Z,16.2
2017-06-17T07:50:02.016Z,16.3
2017-06-17T07:55:01.849Z,16.5
2017-06-17T08:00:01.181Z,16.5
2017-06-17T08:05:01.792Z,16.7
2017-06-17T08:10:01.979Z,17
2017-06-17T08:15:01.930Z,17
2017-06-17T08:20:01.604Z,17.3
2017-06-17T08:25:02.003Z,17.5
2017-06-17T08:30:01.774Z,17.5
2017-06-17T08:35:02.066Z,17.7
2017-06-17T08:40:02.056Z,17.9
2017-06-17T08:45:01.893Z,18.1
2017-06-17T08:50:01.991Z,18.1
2017-06-17T08:55:01.767Z,18.1
2017-06-17T09:00:01.510Z,18.5
2017-06-17T09:05:01.786Z,18.5
2017-06-17T09:10:01.274Z,18.5
2017-06-17T09:15:01.791Z,18.5
2017-06-17T09:20:01.222Z,18.5
2017-06-17T09:25:01.341Z,19.1
2017-06-17T09:30:01.657Z,19.1
2017-06-17T09:35:02.067Z,19.1
2017-06-17T09:40:01.879Z,19.5
2017-06-17T09:45:01.809Z,19.6
2017-06-17T09:50:01.176Z,19.6
2017-06-17T09:55:01.814Z,19.6
2017-06-17T10:00:01.499Z,20.1
2017-06-17T10:05:01.482Z,20.2
2017-06-17T10:10:01.441Z,20.2
2017-06-17T10:15:01.412Z,20.3
2017-06-17T10:20:01.437Z,20.3
2017-06-17T10:25:01.679Z,20.3
2017-06-17T10:30:01.226Z,20.3
2017-06-17T10:35:01.487Z,20.4
2017-06-17T10:40:01.319Z,20.4
2017-06-17T10:45:02.133Z,20.6
2017-06-17T10:50:01.596Z,20.7
2017-06-17T10:55:01.377Z,20.7
2017-06-17T11:00:01.822Z,20.7
2017-06-17T11:05:01.607Z,20.7
2017-06-17T11:10:01.492Z,20.7
2017-06-17T11:15:01.365Z,20.7
2017-06-17T11:20:01.168Z,21
2017-06-17T11:25:01.294Z,21
2017-06-17T11:30:01.832Z,21
2017-06-17T11:35:01.859Z,21
2017-06-17T11:40:01.724Z,21
2017-06-17T11:45:01.355Z,21.1
2017-06-17T11:50:01.714Z,21.2
2017-06-17T11:55:01.382Z,21.2
2017-06-17T12:00:01.743Z,21.2
2017-06-17T12:05:01.683Z,21.2
2017-06-17T12:10:01.983Z,21.2
2017-06-17T12:15:01.524Z,21.2
2017-06-17T12:20:01.269Z,21.2
2017-06-17T12:25:01.396Z,21.2
2017-06-17T12:30:01.803Z,21.2
2017-06-17T12:35:01.947Z,21.2
2017-06-17T12:40:01.787Z,21
2017-06-17T12:45:01.608Z,21
2017-06-17T12:50:01.619Z,20.8
2017-06-17T12:55:01.465Z,20.8
2017-06-17T13:00:01.922Z,20.8
2017-06-17T13:05:01.178Z,20.9
2017-06-17T13:10:01.339Z,20.9
2017-06-17T13:15:02.160Z,21
2017-06-17T13:20:01.357Z,21
2017-06-17T13:25:01.474Z,21
2017-06-17T13:30:01.382Z,21.2
2017-06-17T13:35:01.412Z,21.2
2017-06-17T13:40:01.188Z,21.2
2017-06-17T13:45:02.005Z,21.2
2017-06-17T13:50:01.291Z,21.2
2017-06-17T13:55:01.971Z,21.2
2017-06-17T14:00:01.353Z,21.2
2017-06-17T14:05:02.068Z,21.2
2017-06-17T14:10:02.174Z,21.2
2017-06-17T14:15:01.621Z,21.2
2017-06-17T14:20:01.505Z,21.2
2017-06-17T14:25:01.565Z,21.2
2017-06-17T14:30:02.234Z,21.2
2017-06-17T14:35:01.142Z,21.3
2017-06-17T14:40:02.019Z,21.4
2017-06-17T14:45:01.720Z,21.4
2017-06-17T14:50:01.839Z,21.4
2017-06-17T14:55:01.613Z,21.5
2017-06-17T15:00:01.947Z,21.4
2017-06-17T15:05:01.333Z,21.4
2017-06-17T15:10:01.326Z,21.4
2017-06-17T15:15:02.019Z,21.4
2017-06-17T15:20:01.994Z,21.4
2017-06-17T15:25:02.099Z,21.4
2017-06-17T15:30:01.360Z,21.4
2017-06-17T15:35:01.576Z,21.4
2017-06-17T15:40:01.415Z,21.3
2017-06-17T15:45:01.466Z,21.3
2017-06-17T15:50:01.658Z,21.2
2017-06-17T15:55:01.344Z,21.2
2017-06-17T16:00:01.608Z,21.2
2017-06-17T16:05:01.394Z,21.2
2017-06-17T16:10:01.392Z,21.2
2017-06-17T16:15:01.992Z,21.1
2017-06-17T16:20:01.931Z,21.1
2017-06-17T16:25:02.069Z,21.1
2017-06-17T16:30:01.514Z,21.1
2017-06-17T16:35:01.495Z,21.1
2017-06-17T16:40:01.459Z,21
2017-06-17T16:45:01.284Z,21
2017-06-17T16:50:01.644Z,21
2017-06-17T16:55:01.249Z,20.9
2017-06-17T17:00:01.546Z,20.9
2017-06-17T17:05:02.100Z,20.8
2017-06-17T17:10:01.292Z,20.8
2017-06-17T17:15:01.953Z,20.7
2017-06-17T17:20:02.086Z,20.7
2017-06-17T17:25:01.819Z,20.7
2017-06-17T17:30:01.500Z,20.7
2017-06-17T17:35:01.798Z,20.5
2017-06-17T17:40:01.792Z,20.4
2017-06-17T17:45:01.761Z,20.4
2017-06-17T17:50:01.939Z,20.4
2017-06-17T17:55:01.691Z,20.2
2017-06-17T18:00:02.012Z,20.1
2017-06-17T18:05:01.905Z,20.1
2017-06-17T18:10:01.691Z,20
2017-06-17T18:15:02.025Z,19.9
2017-06-17T18:20:01.824Z,19.9
2017-06-17T18:25:01.904Z,19.9
2017-06-17T18:30:01.245Z,19.8
2017-06-17T18:35:01.859Z,19.8
2017-06-17T18:40:01.287Z,19.8
2017-06-17T18:45:01.213Z,19.8
2017-06-17T18:50:01.470Z,19.8
2017-06-17T18:55:01.924Z,19.8
2017-06-17T19:00:01.263Z,19.3
2017-06-17T19:05:02.232Z,19.1
2017-06-17T19:10:01.488Z,19.1
2017-06-17T19:15:01.331Z,19
2017-06-17T19:20:01.485Z,18.8
2017-06-17T19:25:01.488Z,18.8
2017-06-17T19:30:01.590Z,18.6
2017-06-17T19:35:01.955Z,18.5
2017-06-17T19:40:01.691Z,18.4
2017-06-17T19:45:01.729Z,18.4
2017-06-17T19:50:01.956Z,18.2
2017-06-17T19:55:01.775Z,18
2017-06-17T20:00:01.800Z,18
2017-06-17T20:05:01.537Z,17.8
2017-06-17T20:10:01.293Z,17.8
2017-06-17T20:15:01.847Z,17.6
2017-06-17T20:20:01.227Z,17.6
2017-06-17T20:25:01.620Z,17.4
2017-06-17T20:30:01.955Z,17.4
2017-06-17T20:35:02.099Z,17.2
2017-06-17T20:40:01.245Z,17.2
2017-06-17T20:45:01.460Z,17
2017-06-17T20:50:01.549Z,17
2017-06-17T20:55:01.644Z,16.8
2017-06-17T21:00:02.038Z,16.8
2017-06-17T21:05:01.774Z,16.7
2017-06-17T21:10:01.520Z,16.6
2017-06-17T21:15:02.089Z,16.5
2017-06-17T21:20:02.053Z,16.5
2017-06-17T21:25:01.472Z,16.4
2017-06-17T21:30:01.848Z,16.4
2017-06-17T21:35:01.995Z,16.3
2017-06-17T21:40:01.846Z,16.3
2017-06-17T21:45:01.188Z,16.3
2017-06-17T21:50:01.608Z,16.2
2017-06-17T21:55:01.573Z,16.2
2017-06-17T22:00:01.995Z,16.2
2017-06-17T22:05:03.605Z,16.2
2017-06-17T22:10:01.557Z,16.2
2017-06-17T22:15:01.361Z,16.2
2017-06-17T22:20:02.206Z,16
2017-06-17T22:30:08.562Z,16
2017-06-17T22:35:01.969Z,15.9
2017-06-17T22:40:01.933Z,15.9
2017-06-17T22:45:01.834Z,15.9
2017-06-17T22:50:01.794Z,15.7
2017-06-17T22:55:01.560Z,15.7
2017-06-17T23:00:01.475Z,15.6
2017-06-17T23:05:01.920Z,15.6
2017-06-17T23:10:01.695Z,15.5
2017-06-17T23:15:01.547Z,15.5
2017-06-17T23:20:01.911Z,15.4
2017-06-17T23:25:01.946Z,15.3
2017-06-17T23:30:01.788Z,15.3
2017-06-17T23:35:02.156Z,15
2017-06-17T23:40:32.459Z,15
2017-06-17T23:45:02.081Z,15
2017-06-17T23:50:01.582Z,15
2017-06-17T23:55:01.393Z,15
